Ilgaz — TCHQ — position and weather

sailwx.info

Track history (hours):
 
Tides and Currents Weather Stations Pressure Air Temp Water Temp Dewpoint Dewpoint Depression Visibility Wind Speed Wind Dir Waves Ship Positions

Ilgaz

Last reported at 2014-Jul-29 01:04 UTC. Time now 2014-Jul-30 19:13 UTC.
Position N 40°35' E 027°14'.

Length 124 m; draft 8.2 m.

Type: Cargo ship. MMSI: 271000215.

Date/timePositionNaut miles runAvg speedWind from/ knotsBaromVisibWave heightAir tempDewpointWater temp
2014-Jul-29 01:04N 40°35' E 027°14'33 7.0
2014-Jul-28 20:21N 40°19' E 026°37'13 6.6
2014-Jul-28 18:21N 40°10' E 026°24'6 6.0
2014-Jul-28 17:19N 40°04' E 026°20'6 7.6
2014-Jul-28 16:33N 40°01' E 026°13'8 6.8
2014-Jul-28 15:19N 39°59' E 026°03'6 6.7
2014-Jul-28 14:29N 39°55' E 025°58'16 8.1
2014-Jul-28 12:30N 39°40' E 025°49'28 8.4
2014-Jul-28 09:10N 39°13' E 025°44'9 8.7
2014-Jul-28 08:09N 39°05' E 025°50'5 8.6
2014-Jul-28 07:33N 39°00' E 025°53'77 7.6
2014-Jul-27 21:31N 37°48' E 026°26'8 8.0
2014-Jul-27 20:33N 37°42' E 026°32'39 7.7
2014-Jul-27 15:32N 37°11' E 027°01'10 7.9
2014-Jul-27 14:19N 37°03' E 027°08'24 6.2
2014-Jul-27 10:22N 36°40' E 027°20'272 8.0
2014-Jul-26 00:24N 35°57' E 032°53'  
Track history (hours):
 
Tides and Currents Weather Stations Pressure Air Temp Water Temp Dewpoint Dewpoint Depression Visibility Wind Speed Wind Dir Waves Ship Positions

Ilgaz

Last reported at 2014-Jul-29 01:04 UTC. Time now 2014-Jul-30 19:13 UTC.
Position N 40°35' E 027°14'.

Length 124 m; draft 8.2 m.

Type: Cargo ship. MMSI: 271000215.

Date/timePositionNaut miles runAvg speedWind from/ knotsBaromVisibWave heightAir tempDewpointWater temp
2014-Jul-29 01:04N 40°35' E 027°14'33 7.0
2014-Jul-28 20:21N 40°19' E 026°37'13 6.6
2014-Jul-28 18:21N 40°10' E 026°24'6 6.0
2014-Jul-28 17:19N 40°04' E 026°20'6 7.6
2014-Jul-28 16:33N 40°01' E 026°13'8 6.8
2014-Jul-28 15:19N 39°59' E 026°03'6 6.7
2014-Jul-28 14:29N 39°55' E 025°58'16 8.1
2014-Jul-28 12:30N 39°40' E 025°49'28 8.4
2014-Jul-28 09:10N 39°13' E 025°44'9 8.7
2014-Jul-28 08:09N 39°05' E 025°50'5 8.6
2014-Jul-28 07:33N 39°00' E 025°53'77 7.6
2014-Jul-27 21:31N 37°48' E 026°26'8 8.0
2014-Jul-27 20:33N 37°42' E 026°32'39 7.7
2014-Jul-27 15:32N 37°11' E 027°01'10 7.9
2014-Jul-27 14:19N 37°03' E 027°08'24 6.2
2014-Jul-27 10:22N 36°40' E 027°20'272 8.0
2014-Jul-26 00:24N 35°57' E 032°53'  

Dump ship's entire track history